Time;durP1;ratioP1;P1;durP2;ratioP2;P2;SDS_P1;SDS_P2;PMS_P1;PMS_P2;Temp;Humidity;BMP_temperature;BMP_pressure;BME280_temperature;BME280_humidity;BME280_pressure;Samples;Min_cycle;Max_cycle;Signal;HPM_P1;HPM_P2
2022/06/22 00:00:20;;;;;;;11.93;7.03;;;;;;;13.72;72.86;101337.06;5073995;28;20332;-56
2022/06/22 00:02:50;;;;;;;10.80;6.60;;;;;;;13.70;72.98;101333.75;5076418;28;20029;-56
2022/06/22 00:05:23;;;;;;;9.90;6.35;;;;;;;13.82;73.39;101336.81;5079444;28;20107;-56
2022/06/22 00:07:53;;;;;;;10.73;6.22;;;;;;;13.84;73.21;101334.81;5075344;28;20039;-56
2022/06/22 00:10:31;;;;;;;10.27;6.45;;;;;;;13.85;73.10;101325.78;5073634;28;20103;-55
2022/06/22 00:12:59;;;;;;;16.13;6.65;;;;;;;13.79;73.21;101310.50;5073832;28;20468;-56
2022/06/22 00:15:40;;;;;;;9.85;6.35;;;;;;;13.89;73.56;101322.59;5079408;28;20024;-56
2022/06/22 00:18:24;;;;;;;8.43;6.78;;;;;;;13.87;73.79;101321.91;5079122;28;20107;-56
2022/06/22 00:20:51;;;;;;;10.20;7.15;;;;;;;13.86;73.78;101319.44;5075461;28;20064;-56
2022/06/22 00:23:37;;;;;;;9.88;6.50;;;;;;;13.86;74.13;101316.75;5074339;28;20461;-56
2022/06/22 00:26:31;;;;;;;11.32;7.90;;;;;;;13.92;74.10;101319.56;5076051;28;20506;-55
2022/06/22 00:29:09;;;;;;;10.95;7.63;;;;;;;13.93;74.51;101323.91;5079039;28;20043;-54
2022/06/22 00:31:42;;;;;;;12.00;8.57;;;;;;;13.95;74.44;101305.84;5075528;28;20066;-56
2022/06/22 00:34:10;;;;;;;14.63;9.70;;;;;;;13.98;74.72;101301.97;5079201;28;20016;-56
2022/06/22 00:36:49;;;;;;;11.27;9.50;;;;;;;14.06;75.24;101307.25;5071160;28;20032;-56
2022/06/22 00:39:20;;;;;;;;;;;;;;;14.19;74.85;101303.97;5075000;28;20051;-55
2022/06/22 00:42:16;;;;;;;15.07;9.57;;;;;;;14.19;74.76;101301.28;5075228;28;20291;-56
2022/06/22 00:44:49;;;;;;;15.15;9.68;;;;;;;14.19;75.08;101307.47;5072799;28;20031;-56
2022/06/22 00:47:28;;;;;;;14.35;9.40;;;;;;;14.21;75.12;101299.25;5086556;28;20401;-56
2022/06/22 00:49:59;;;;;;;16.10;9.25;;;;;;;14.19;75.26;101303.97;5075477;28;20035;-55
2022/06/22 00:52:33;;;;;;;11.88;9.05;;;;;;;14.18;74.84;101304.97;5077483;28;20525;-56
2022/06/22 00:54:59;;;;;;;11.80;8.50;;;;;;;14.16;74.82;101294.44;5070805;28;20107;-56
2022/06/22 00:57:35;;;;;;;11.52;9.00;;;;;;;14.08;74.90;101297.19;5077917;28;20126;-57
2022/06/22 01:00:06;;;;;;;14.25;9.38;;;;;;;14.14;75.33;101309.81;5083922;28;20047;-56
2022/06/22 01:02:37;;;;;;;12.23;8.82;;;;;;;13.95;74.92;101297.84;5077462;28;20514;-55
2022/06/22 01:05:34;;;;;;;12.93;9.00;;;;;;;13.97;74.91;101297.66;5074143;28;20040;-56
2022/06/22 01:08:21;;;;;;;14.68;8.55;;;;;;;13.89;75.00;101301.25;5086198;28;20024;-56
2022/06/22 01:11:01;;;;;;;11.77;8.80;;;;;;;13.74;75.13;101304.88;5075840;28;20012;-56
2022/06/22 01:13:45;;;;;;;12.95;9.18;;;;;;;13.68;75.21;101308.25;5073174;28;20082;-56
2022/06/22 01:16:39;;;;;;;18.33;9.63;;;;;;;13.67;75.60;101307.44;5079382;28;20042;-55
2022/06/22 01:19:34;;;;;;;16.23;9.55;;;;;;;13.70;75.86;101298.22;5069616;28;20050;-56
2022/06/22 01:22:10;;;;;;;12.48;9.68;;;;;;;13.73;75.83;101293.34;5074458;28;20051;-57
2022/06/22 01:25:01;;;;;;;14.35;10.15;;;;;;;13.73;76.53;101298.69;5072137;28;20027;-55
2022/06/22 01:27:34;;;;;;;14.27;10.55;;;;;;;13.79;76.41;101305.97;5078367;28;20531;-56
2022/06/22 01:30:03;;;;;;;13.55;9.73;;;;;;;13.81;76.79;101314.63;5085807;28;20128;-54
2022/06/22 01:32:34;;;;;;;13.43;10.75;;;;;;;13.78;76.65;101319.50;5071609;28;20032;-56
2022/06/22 01:35:14;;;;;;;14.48;9.38;;;;;;;13.67;76.67;101318.09;5073924;28;20151;-56
2022/06/22 01:37:44;;;;;;;12.80;9.82;;;;;;;13.58;76.37;101320.00;5081226;28;20640;-56
2022/06/22 01:40:15;;;;;;;13.55;9.73;;;;;;;13.51;76.47;101311.03;5079282;28;20043;-56
2022/06/22 01:42:50;;;;;;;15.25;10.13;;;;;;;13.54;76.67;101302.69;5075453;28;20072;-55
2022/06/22 01:45:40;;;;;;;13.23;9.80;;;;;;;13.59;76.67;101296.84;5072218;28;20024;-55
2022/06/22 01:48:14;;;;;;;14.68;10.20;;;;;;;13.61;76.63;101290.31;5086457;28;20492;-56
2022/06/22 01:50:49;;;;;;;13.80;10.32;;;;;;;13.59;77.02;101284.31;5072139;28;20059;-56
2022/06/22 01:53:29;;;;;;;14.88;10.68;;;;;;;13.58;77.13;101273.78;5081107;28;20293;-57
2022/06/22 01:56:04;;;;;;;14.10;10.68;;;;;;;13.54;77.34;101267.16;5072203;28;20052;-56
2022/06/22 01:58:45;;;;;;;16.55;11.23;;;;;;;13.58;77.33;101266.63;5083998;28;20028;-55
2022/06/22 02:01:27;;;;;;;17.40;10.65;;;;;;;13.60;77.65;101269.97;5082151;28;20082;-55
2022/06/22 02:04:07;;;;;;;17.73;11.68;;;;;;;13.60;77.89;101277.97;5072181;28;20065;-54
2022/06/22 02:09:36;;;;;;;15.88;10.70;;;;;;;13.35;77.99;101289.00;5075130;28;20158;-56
2022/06/22 02:12:20;;;;;;;16.38;10.60;;;;;;;13.34;77.87;101282.84;5075443;28;20020;-55
2022/06/22 02:14:52;;;;;;;14.88;10.98;;;;;;;13.30;77.94;101281.53;5074076;28;20021;-55
2022/06/22 02:17:23;;;;;;;17.50;10.55;;;;;;;13.23;78.02;101284.06;5083448;28;20105;-55
2022/06/22 02:20:25;;;;;;;16.67;10.45;;;;;;;13.32;78.12;101283.03;5077318;28;20039;-55
2022/06/22 02:22:55;;;;;;;12.75;10.38;;;;;;;13.30;78.40;101286.88;5081893;28;20020;-55
2022/06/22 02:25:21;;;;;;;16.80;11.23;;;;;;;13.33;78.63;101284.69;5081935;28;20032;-56
2022/06/22 02:27:47;;;;;;;12.98;10.45;;;;;;;13.25;78.39;101278.53;5079416;28;20499;-55
2022/06/22 02:30:12;;;;;;;12.23;10.48;;;;;;;13.16;78.10;101274.25;5093052;28;20070;-56
2022/06/22 02:32:40;;;;;;;13.32;10.98;;;;;;;13.10;78.36;101266.97;5075857;28;20038;-56
2022/06/22 02:35:08;;;;;;;13.88;10.88;;;;;;;13.01;78.67;101268.84;5080577;28;20119;-55
2022/06/22 02:37:38;;;;;;;13.57;10.23;;;;;;;12.93;78.30;101259.06;5090699;28;20081;-56
2022/06/22 02:40:09;;;;;;;12.35;9.88;;;;;;;12.91;78.69;101260.22;5082878;28;20025;-55
2022/06/22 02:45:19;;;;;;;16.35;10.85;;;;;;;12.92;78.81;101238.72;5073089;28;20047;-56
2022/06/22 02:47:48;;;;;;;15.43;11.43;;;;;;;12.95;79.64;101235.72;5084967;28;20023;-56
2022/06/22 02:50:24;;;;;;;15.73;11.35;;;;;;;12.96;79.46;101240.03;5077046;28;20020;-56
2022/06/22 02:52:52;;;;;;;14.35;10.80;;;;;;;12.92;79.87;101243.22;5077799;28;20028;-56
2022/06/22 02:55:21;;;;;;;14.25;10.10;;;;;;;12.85;79.67;101252.94;5073734;28;20120;-55
2022/06/22 02:57:52;;;;;;;17.45;10.63;;;;;;;12.91;79.60;101252.25;5080093;28;20027;-56
2022/06/22 03:00:20;;;;;;;16.85;10.23;;;;;;;12.86;79.22;101252.78;5074648;28;20040;-55
2022/06/22 03:02:47;;;;;;;13.32;10.20;;;;;;;12.86;79.54;101249.28;5082570;28;20032;-55
2022/06/22 03:05:14;;;;;;;9.85;8.85;;;;;;;12.79;79.32;101243.00;5074451;28;20028;-54
2022/06/22 03:07:43;;;;;;;15.63;10.57;;;;;;;12.77;79.67;101251.16;5081875;28;20024;-56
2022/06/22 03:10:22;;;;;;;13.52;10.77;;;;;;;12.76;80.05;101259.34;5084603;28;20071;-56
2022/06/22 03:12:47;;;;;;;15.80;12.05;;;;;;;12.66;80.02;101255.03;5071309;28;20036;-54
2022/06/22 03:15:19;;;;;;;18.30;12.48;;;;;;;12.69;80.40;101259.19;5082557;28;20470;-54
2022/06/22 03:17:45;;;;;;;14.82;12.20;;;;;;;12.66;80.55;101265.69;5077351;28;20098;-56
2022/06/22 03:20:21;;;;;;;20.23;12.40;;;;;;;12.66;81.12;101271.00;5081839;28;20492;-55
2022/06/22 03:23:05;;;;;;;16.65;11.77;;;;;;;12.67;81.39;101282.50;5072757;28;20048;-54
2022/06/22 03:25:42;;;;;;;12.20;10.93;;;;;;;12.58;80.87;101281.72;5077155;28;20033;-56
2022/06/22 03:28:15;;;;;;;16.27;11.85;;;;;;;12.55;80.89;101262.59;5087759;28;20020;-54
2022/06/22 03:30:52;;;;;;;15.23;11.10;;;;;;;12.62;80.96;101256.38;5073258;28;20103;-56
2022/06/22 03:33:29;;;;;;;13.98;10.80;;;;;;;12.70;81.19;101252.84;5072719;28;20024;-55
2022/06/22 03:35:59;;;;;;;11.63;9.18;;;;;;;12.64;80.78;101245.56;5077591;28;20028;-54
2022/06/22 03:38:29;;;;;;;12.10;10.63;;;;;;;12.62;80.70;101264.38;5074017;28;20529;-55
2022/06/22 03:41:00;;;;;;;19.17;11.00;;;;;;;12.60;80.63;101261.06;5081184;28;20016;-55
2022/06/22 03:43:44;;;;;;;14.68;10.52;;;;;;;12.58;80.55;101255.06;5084375;28;20051;-56
2022/06/22 03:46:22;;;;;;;12.63;9.77;;;;;;;12.51;80.41;101255.94;5077956;28;20497;-55
2022/06/22 03:48:55;;;;;;;13.70;11.27;;;;;;;12.42;80.38;101241.81;5075663;28;20110;-56
2022/06/22 03:51:53;;;;;;;13.77;9.52;;;;;;;12.44;80.67;101241.66;5077615;28;20039;-56
2022/06/22 03:54:45;;;;;;;8.80;7.82;;;;;;;12.45;80.94;101246.81;5065886;28;20036;-56
2022/06/22 03:57:16;;;;;;;7.30;6.60;;;;;;;12.36;81.46;101242.50;5075560;28;20024;-56
2022/06/22 03:59:45;;;;;;;9.05;7.65;;;;;;;12.31;81.24;101236.88;5082895;28;20064;-56
2022/06/22 04:02:11;;;;;;;11.77;7.93;;;;;;;12.32;81.13;101243.84;5074845;28;20016;-56
2022/06/22 04:04:36;;;;;;;10.75;7.68;;;;;;;12.30;81.64;101248.53;5089850;28;20030;-55
2022/06/22 04:07:02;;;;;;;8.88;7.97;;;;;;;12.29;81.27;101247.69;5075568;28;20042;-55
2022/06/22 04:09:29;;;;;;;11.27;9.40;;;;;;;12.35;81.68;101246.16;5075798;28;20098;-55
2022/06/22 04:12:04;;;;;;;13.00;10.23;;;;;;;12.39;82.09;101236.81;5074191;28;20074;-55
2022/06/22 04:15:04;;;;;;;17.83;11.55;;;;;;;12.53;82.42;101232.63;5089872;28;20078;-56
2022/06/22 04:17:31;;;;;;;16.80;11.25;;;;;;;12.61;82.45;101235.25;5074555;28;20035;-56
2022/06/22 04:20:05;;;;;;;14.77;9.25;;;;;;;12.57;82.02;101255.25;5076541;28;20047;-55
2022/06/22 04:22:34;;;;;;;16.95;10.10;;;;;;;12.56;81.96;101242.94;5073080;28;20028;-56
2022/06/22 04:25:15;;;;;;;16.35;12.13;;;;;;;12.67;82.16;101240.69;5078462;28;20028;-56
2022/06/22 04:27:48;;;;;;;21.65;14.20;;;;;;;12.81;82.53;101232.97;5082923;28;20043;-56
2022/06/22 04:30:21;;;;;;;21.50;14.88;;;;;;;12.91;82.85;101233.56;5074163;28;20017;-56
2022/06/22 04:33:15;;;;;;;19.13;14.38;;;;;;;12.98;82.90;101242.53;5069484;28;20390;-55
2022/06/22 04:35:50;;;;;;;20.77;15.18;;;;;;;13.07;82.60;101259.31;5079679;28;20034;-56
2022/06/22 04:38:37;;;;;;;19.15;14.55;;;;;;;13.01;82.45;101259.03;5079980;28;20021;-55
2022/06/22 04:41:27;;;;;;;19.88;15.07;;;;;;;13.04;82.35;101263.16;5078117;28;20015;-55
2022/06/22 04:43:54;;;;;;;22.02;15.75;;;;;;;13.06;82.82;101261.16;5075452;28;20100;-55
2022/06/22 04:46:29;;;;;;;20.27;16.35;;;;;;;13.14;83.01;101263.75;5083057;28;20039;-55
2022/06/22 04:49:01;;;;;;;23.20;16.90;;;;;;;13.14;82.90;101271.75;5069887;28;20384;-56
2022/06/22 04:51:32;;;;;;;22.10;16.73;;;;;;;13.24;82.72;101266.22;5081054;28;20025;-56
2022/06/22 04:54:05;;;;;;;23.65;16.52;;;;;;;13.24;82.99;101269.72;5080098;28;20552;-54
2022/06/22 04:56:35;;;;;;;20.50;16.98;;;;;;;13.39;82.84;101283.13;5085213;28;20534;-56
2022/06/22 04:59:03;;;;;;;23.50;16.42;;;;;;;13.48;83.39;101270.56;5074196;28;20050;-53
2022/06/22 05:01:37;;;;;;;23.63;16.52;;;;;;;13.55;83.24;101266.97;5082152;28;20392;-54
2022/06/22 05:04:12;;;;;;;22.23;16.92;;;;;;;13.70;83.37;101279.53;5073957;28;20047;-55
2022/06/22 05:06:54;;;;;;;27.13;16.92;;;;;;;13.80;83.44;101280.13;5086664;28;20504;-54
2022/06/22 05:09:27;;;;;;;30.50;17.15;;;;;;;13.89;83.19;101274.53;5079211;28;20043;-55
2022/06/22 05:11:52;;;;;;;22.25;16.20;;;;;;;14.01;83.46;101282.94;5074878;28;21068;-55
2022/06/22 05:14:27;;;;;;;22.98;17.20;;;;;;;14.15;83.41;101294.63;5087052;28;20028;-55
2022/06/22 05:16:57;;;;;;;28.27;17.48;;;;;;;14.25;83.20;101305.88;5070972;28;20023;-56
2022/06/22 05:19:26;;;;;;;22.70;16.60;;;;;;;14.37;83.16;101303.56;5077527;28;20032;-55
2022/06/22 05:21:51;;;;;;;24.77;16.80;;;;;;;14.44;83.08;101302.69;5084945;28;20015;-55
2022/06/22 05:24:24;;;;;;;23.15;16.73;;;;;;;14.55;82.89;101314.78;5081022;28;20035;-56
2022/06/22 05:26:52;;;;;;;25.52;15.95;;;;;;;14.67;82.61;101309.78;5079587;28;20106;-55
2022/06/22 05:29:28;;;;;;;21.58;16.40;;;;;;;14.74;82.27;101308.84;5079547;28;20028;-55
2022/06/22 05:32:00;;;;;;;24.45;16.65;;;;;;;14.85;82.06;101304.88;5068751;28;20028;-55
2022/06/22 05:34:31;;;;;;;24.75;16.40;;;;;;;14.95;81.67;101310.75;5080437;28;20039;-55
2022/06/22 05:37:05;;;;;;;22.67;16.00;;;;;;;15.04;81.53;101304.28;5074013;28;20537;-55
2022/06/22 05:39:33;;;;;;;29.42;17.25;;;;;;;15.17;81.58;101306.28;5068895;28;20035;-55
2022/06/22 05:42:01;;;;;;;22.80;17.02;;;;;;;15.22;81.25;101303.03;5073902;28;20043;-55
2022/06/22 05:44:26;;;;;;;23.33;17.75;;;;;;;15.33;81.18;101310.56;5080761;28;20111;-55
2022/06/22 05:46:55;;;;;;;21.35;16.27;;;;;;;15.42;81.08;101304.06;5080423;28;20143;-55
2022/06/22 05:49:26;;;;;;;19.48;16.05;;;;;;;15.45;80.89;101311.72;5077962;28;20043;-56
2022/06/22 05:52:10;;;;;;;25.35;17.00;;;;;;;15.58;80.63;101305.66;5073314;28;20032;-55
2022/06/22 05:54:44;;;;;;;23.33;15.50;;;;;;;15.62;80.54;101294.41;5082365;28;20429;-56
2022/06/22 05:57:39;;;;;;;23.70;15.68;;;;;;;15.68;80.21;101307.03;5076786;28;20170;-55
2022/06/22 06:00:11;;;;;;;23.55;15.80;;;;;;;15.69;79.82;101308.69;5076422;28;20047;-55
2022/06/22 06:02:45;;;;;;;24.02;16.88;;;;;;;15.82;79.75;101307.13;5075168;28;20483;-55
2022/06/22 06:05:23;;;;;;;23.73;15.45;;;;;;;15.88;79.92;101315.22;5082475;28;20024;-55
2022/06/22 06:07:54;;;;;;;21.10;14.85;;;;;;;15.93;79.25;101320.00;5074220;28;20085;-56
2022/06/22 06:10:25;;;;;;;18.75;14.98;;;;;;;16.02;79.63;101325.03;5077744;28;20036;-55
2022/06/22 06:13:09;;;;;;;19.42;14.77;;;;;;;16.09;79.07;101327.75;5071970;28;20028;-56
2022/06/22 06:15:38;;;;;;;21.17;14.98;;;;;;;16.12;79.22;101327.34;5076644;28;20514;-56
2022/06/22 06:18:06;;;;;;;22.90;15.80;;;;;;;16.24;79.14;101325.81;5073795;28;20031;-55
2022/06/22 06:20:39;;;;;;;23.10;15.38;;;;;;;16.27;78.93;101330.78;5076152;28;20052;-55
2022/06/22 06:23:21;;;;;;;20.88;15.23;;;;;;;16.34;78.90;101330.81;5073167;28;20148;-55
2022/06/22 06:29:04;;;;;;;25.05;14.00;;;;;;;16.56;78.55;101334.25;5080106;28;20043;-55
2022/06/22 06:31:37;;;;;;;19.83;13.65;;;;;;;16.64;78.44;101332.22;5069525;28;20056;-54
2022/06/22 06:34:21;;;;;;;19.88;13.30;;;;;;;16.70;77.99;101331.47;5075218;28;20031;-55
2022/06/22 06:36:59;;;;;;;17.60;13.30;;;;;;;16.77;77.54;101323.47;5075753;28;20032;-56
2022/06/22 06:39:29;;;;;;;17.73;12.77;;;;;;;16.83;76.70;101327.22;5080221;28;20032;-55
2022/06/22 06:42:04;;;;;;;17.52;12.13;;;;;;;16.92;75.94;101328.69;5078301;28;20108;-56
2022/06/22 06:44:38;;;;;;;20.45;13.23;;;;;;;16.98;76.19;101330.56;5077413;28;20039;-55
2022/06/22 06:47:11;;;;;;;20.08;13.05;;;;;;;17.05;76.04;101328.72;5077350;28;20068;-56
2022/06/22 06:49:44;;;;;;;16.83;13.32;;;;;;;17.10;75.81;101326.28;5077418;28;20143;-55
2022/06/22 06:52:18;;;;;;;22.17;12.82;;;;;;;17.23;75.61;101322.81;5074153;28;20304;-54
2022/06/22 06:55:13;;;;;;;21.90;12.95;;;;;;;17.28;75.43;101313.09;5075156;28;20035;-57
2022/06/22 06:57:46;;;;;;;21.15;12.88;;;;;;;17.32;75.32;101313.53;5072921;28;20043;-56
2022/06/22 07:00:12;;;;;;;18.70;12.85;;;;;;;17.39;75.57;101309.00;5075119;28;20024;-56
2022/06/22 07:02:42;;;;;;;18.60;12.35;;;;;;;17.45;75.24;101307.38;5078131;28;20027;-56
2022/06/22 07:05:14;;;;;;;19.00;12.23;;;;;;;17.51;74.56;101312.75;5089683;28;20024;-55
2022/06/22 07:07:48;;;;;;;19.40;12.75;;;;;;;17.55;74.20;101307.78;5077520;28;20093;-55
2022/06/22 07:10:22;;;;;;;14.95;12.48;;;;;;;17.62;74.11;101303.25;5080485;28;20469;-55
2022/06/22 07:12:57;;;;;;;19.92;12.63;;;;;;;17.73;73.94;101309.91;5073472;28;20572;-56
2022/06/22 07:15:28;;;;;;;25.30;13.23;;;;;;;17.80;73.79;101299.97;5077048;28;20033;-56
2022/06/22 07:18:00;;;;;;;17.77;11.98;;;;;;;17.87;73.08;101301.63;5076484;28;20047;-55
2022/06/22 07:20:31;;;;;;;17.58;11.75;;;;;;;17.98;72.83;101297.50;5076375;28;20024;-56
2022/06/22 07:23:03;;;;;;;18.88;11.20;;;;;;;17.99;72.53;101301.03;5076671;28;20081;-55
2022/06/22 07:25:43;;;;;;;16.33;11.85;;;;;;;18.09;71.80;101301.41;5068577;28;20035;-56
2022/06/22 07:28:39;;;;;;;16.92;11.80;;;;;;;18.18;71.66;101294.78;5083571;28;20024;-55
2022/06/22 07:31:12;;;;;;;13.13;11.20;;;;;;;18.24;71.52;101297.47;5073220;28;20029;-55
2022/06/22 07:33:46;;;;;;;17.33;11.43;;;;;;;18.29;71.14;101296.84;5073565;28;20790;-55
2022/06/22 07:36:18;;;;;;;19.00;11.48;;;;;;;18.35;71.35;101300.53;5074392;28;20040;-55
2022/06/22 07:38:49;;;;;;;21.48;11.18;;;;;;;18.39;70.93;101289.16;5068603;28;20032;-56
2022/06/22 07:41:18;;;;;;;18.75;11.10;;;;;;;18.42;70.46;101279.84;5070568;28;20258;-56
2022/06/22 07:43:46;;;;;;;14.55;10.73;;;;;;;18.44;70.05;101275.06;5071344;28;20582;-56
2022/06/22 07:46:20;;;;;;;17.07;10.50;;;;;;;18.44;70.05;101272.38;5076631;28;20021;-54
2022/06/22 07:48:50;;;;;;;14.60;10.18;;;;;;;18.44;69.57;101275.88;5069603;28;20899;-55
2022/06/22 07:51:23;;;;;;;20.15;10.02;;;;;;;18.52;69.37;101275.69;5071901;28;20024;-55
2022/06/22 07:53:57;;;;;;;15.20;10.05;;;;;;;18.59;69.09;101281.03;5070728;28;20027;-56
2022/06/22 07:56:33;;;;;;;11.55;9.50;;;;;;;18.66;68.95;101289.94;5083187;28;20027;-56
2022/06/22 07:59:06;;;;;;;14.07;8.93;;;;;;;18.70;68.69;101288.47;5079656;28;20026;-57
2022/06/22 08:01:39;;;;;;;14.00;8.95;;;;;;;18.77;68.14;101293.81;5082322;28;20032;-55
2022/06/22 08:04:17;;;;;;;13.27;8.00;;;;;;;18.86;67.61;101297.94;5080342;28;20432;-56
2022/06/22 08:07:10;;;;;;;13.07;8.57;;;;;;;18.94;66.98;101286.09;5072524;28;20043;-55
2022/06/22 08:09:44;;;;;;;21.33;9.15;;;;;;;19.00;67.15;101288.72;5078177;28;20040;-55
2022/06/22 08:12:28;;;;;;;16.27;9.02;;;;;;;19.08;66.68;101290.34;5083416;28;20543;-55
2022/06/22 08:14:54;;;;;;;12.60;8.30;;;;;;;19.07;66.24;101286.00;5072707;28;20067;-55
2022/06/22 08:17:41;;;;;;;14.30;8.88;;;;;;;19.18;66.08;101282.66;5074273;28;20476;-55
2022/06/22 08:20:10;;;;;;;11.98;8.45;;;;;;;19.22;65.97;101286.56;5077897;28;20158;-55
2022/06/22 08:22:36;;;;;;;14.75;7.90;;;;;;;19.31;65.88;101293.31;5083043;28;20391;-55
2022/06/22 08:25:04;;;;;;;12.13;7.93;;;;;;;19.39;65.29;101295.78;5078977;28;20475;-55
2022/06/22 08:27:29;;;;;;;9.77;7.17;;;;;;;19.52;64.93;101294.84;5077390;28;20472;-56
2022/06/22 08:29:57;;;;;;;11.38;7.47;;;;;;;19.61;64.39;101296.25;5079214;28;20727;-55
2022/06/22 08:32:34;;;;;;;11.32;7.00;;;;;;;19.74;63.73;101289.94;5087821;28;20072;-56
2022/06/22 08:35:18;;;;;;;11.35;7.05;;;;;;;19.85;63.30;101299.19;5077011;28;20472;-56
2022/06/22 08:37:51;;;;;;;11.30;7.05;;;;;;;19.95;62.67;101307.56;5073050;28;20112;-55
2022/06/22 08:40:35;;;;;;;10.95;6.88;;;;;;;20.08;62.23;101302.91;5089826;28;20047;-56
2022/06/22 08:43:14;;;;;;;10.32;6.90;;;;;;;20.24;61.89;101301.53;5079120;28;20283;-55
2022/06/22 08:45:58;;;;;;;10.95;6.70;;;;;;;20.48;61.72;101299.81;5078719;28;20095;-55
2022/06/22 08:49:05;;;;;;;10.20;6.47;;;;;;;20.60;60.49;101297.22;5072705;28;20035;-55
2022/06/22 08:51:49;;;;;;;9.73;5.88;;;;;;;20.77;59.91;101287.44;5055234;28;20047;-55
2022/06/22 08:54:23;;;;;;;10.65;6.28;;;;;;;20.96;59.53;101301.75;5074129;28;20032;-55
2022/06/22 08:57:02;;;;;;;9.95;6.40;;;;;;;21.09;59.43;101303.44;5073476;28;20020;-56
2022/06/22 08:59:40;;;;;;;9.73;5.47;;;;;;;21.25;58.26;101302.84;5084852;28;20032;-56
2022/06/22 09:02:29;;;;;;;7.68;4.88;;;;;;;21.40;58.06;101300.53;5072356;28;20056;-55
2022/06/22 09:05:26;;;;;;;7.63;4.50;;;;;;;21.45;57.33;101294.44;5082082;28;20044;-55
2022/06/22 09:07:54;;;;;;;7.97;4.20;;;;;;;21.50;56.66;101286.47;5072894;28;20396;-55
2022/06/22 09:10:33;;;;;;;9.43;4.20;;;;;;;21.65;55.70;101284.13;5075217;28;20064;-54
2022/06/22 09:13:15;;;;;;;7.88;3.85;;;;;;;21.82;54.82;101292.38;5081166;28;20024;-55
2022/06/22 09:15:43;;;;;;;11.07;4.50;;;;;;;21.96;54.78;101288.38;5072283;28;20492;-54
2022/06/22 09:18:14;;;;;;;11.83;4.50;;;;;;;22.14;54.74;101288.31;5073952;28;20662;-56
2022/06/22 09:20:54;;;;;;;11.07;4.63;;;;;;;22.37;54.01;101289.34;5072161;28;20051;-56
2022/06/22 09:23:31;;;;;;;8.77;3.65;;;;;;;22.64;52.79;101300.47;5080318;28;20082;-55
2022/06/22 09:26:13;;;;;;;5.70;3.40;;;;;;;22.80;51.72;101297.00;5079130;28;20016;-56
2022/06/22 09:28:53;;;;;;;9.43;3.50;;;;;;;22.98;51.64;101309.59;5077670;28;20027;-55
2022/06/22 09:31:37;;;;;;;7.57;3.90;;;;;;;23.13;51.46;101308.00;5085793;28;20031;-55
2022/06/22 09:34:14;;;;;;;8.93;4.00;;;;;;;23.21;51.07;101304.06;5072509;28;20037;-56
2022/06/22 09:37:00;;;;;;;9.25;3.83;;;;;;;23.33;51.18;101304.81;5073748;28;20020;-54
2022/06/22 09:40:03;;;;;;;8.75;4.35;;;;;;;23.41;50.39;101309.03;5081622;28;20035;-55
2022/06/22 09:42:50;;;;;;;11.27;3.60;;;;;;;23.65;49.42;101313.28;5071408;28;20058;-54
2022/06/22 09:45:59;;;;;;;6.88;3.03;;;;;;;23.82;48.63;101315.19;5071740;28;20063;-55
2022/06/22 09:48:51;;;;;;;7.55;3.10;;;;;;;24.00;48.04;101314.94;5069211;28;20110;-56
2022/06/22 09:51:25;;;;;;;9.27;3.60;;;;;;;24.03;48.18;101314.44;5066096;28;20540;-55
2022/06/22 09:56:19;;;;;;;6.30;3.40;;;;;;;24.04;48.67;101302.50;5067941;28;20029;-57
2022/06/22 09:57:06;;;;;;;5.70;3.17;;;;;;;24.25;47.96;101315.28;5063277;28;20115;-56
2022/06/22 09:59:47;;;;;;;6.68;2.78;;;;;;;24.34;46.74;101307.59;5076773;28;20035;-55
2022/06/22 10:02:24;;;;;;;7.53;3.10;;;;;;;24.48;45.59;101310.75;5073090;28;20025;-55
2022/06/22 10:05:16;;;;;;;6.88;3.08;;;;;;;24.61;46.48;101310.38;5072170;28;20058;-56
2022/06/22 10:07:44;;;;;;;7.00;2.83;;;;;;;24.62;45.10;101299.28;5071163;28;20442;-55
2022/06/22 10:10:18;;;;;;;5.57;2.90;;;;;;;24.70;44.19;101296.09;5073491;28;20487;-55
2022/06/22 10:13:00;;;;;;;4.43;2.63;;;;;;;24.89;44.64;101306.66;5073802;28;20023;-55
2022/06/22 10:16:07;;;;;;;5.97;3.10;;;;;;;25.10;44.29;101305.00;5072315;28;20028;-55
2022/06/22 10:18:44;;;;;;;6.80;3.10;;;;;;;25.19;43.87;101307.03;5076250;28;20051;-56
2022/06/22 10:21:16;;;;;;;4.67;2.67;;;;;;;25.28;43.32;101299.22;5073538;28;20154;-55
2022/06/22 10:24:08;;;;;;;5.38;2.20;;;;;;;25.43;43.67;101291.19;5074116;28;20020;-55
2022/06/22 10:26:52;;;;;;;10.85;2.58;;;;;;;25.45;42.08;101296.38;5074760;28;20027;-57
2022/06/22 10:29:54;;;;;;;6.20;2.40;;;;;;;25.45;41.64;101289.06;5073080;28;20488;-56
2022/06/22 10:32:38;;;;;;;9.10;2.75;;;;;;;25.52;41.17;101284.22;5069800;28;20498;-54
2022/06/22 10:35:22;;;;;;;4.20;2.53;;;;;;;25.65;41.45;101280.22;5071691;28;20028;-55
2022/06/22 10:38:11;;;;;;;4.18;2.25;;;;;;;25.76;40.79;101281.16;5072434;28;20077;-56
2022/06/22 10:46:35;;;;;;;4.78;2.40;;;;;;;25.58;40.24;101272.28;5087984;28;20039;-56
2022/06/22 10:49:31;;;;;;;6.85;2.47;;;;;;;25.46;39.68;101260.78;5070436;28;20029;-56
2022/06/22 10:52:06;;;;;;;3.97;2.42;;;;;;;25.43;40.20;101263.16;5071456;28;20111;-55
2022/06/22 10:54:34;;;;;;;5.53;2.40;;;;;;;25.48;39.66;101265.94;5083518;28;20032;-54
2022/06/22 10:57:20;;;;;;;3.97;2.20;;;;;;;25.53;39.76;101261.38;5071870;28;20598;-55
2022/06/22 11:00:07;;;;;;;6.15;2.40;;;;;;;25.63;41.32;101261.44;5082683;28;20016;-56
2022/06/22 11:02:47;;;;;;;7.47;2.97;;;;;;;25.46;39.85;101259.94;5080316;28;20032;-56
2022/06/22 11:05:58;;;;;;;6.35;2.10;;;;;;;25.67;41.10;101266.38;5077384;28;20102;-56
2022/06/22 11:09:02;;;;;;;6.35;2.42;;;;;;;25.77;39.98;101266.47;5054396;28;20116;-57
2022/06/22 11:11:56;;;;;;;5.32;2.00;;;;;;;25.88;39.83;101268.19;5074084;28;20020;-55
2022/06/22 11:14:59;;;;;;;5.65;2.40;;;;;;;25.99;39.64;101267.16;5053556;28;20039;-57
2022/06/22 11:17:47;;;;;;;5.43;2.35;;;;;;;26.04;39.47;101267.22;5086660;28;20028;-56
2022/06/22 11:20:40;;;;;;;6.87;2.20;;;;;;;26.17;38.78;101272.16;5074877;28;20044;-55
2022/06/22 11:23:11;;;;;;;4.63;2.40;;;;;;;26.11;38.23;101270.50;5078278;28;20154;-56
2022/06/22 11:31:58;;;;;;;3.75;1.70;;;;;;;26.26;36.57;101264.31;5077734;28;20035;-54
2022/06/22 11:34:45;;;;;;;2.58;1.40;;;;;;;26.39;36.31;101260.34;5076434;28;20024;-53
2022/06/22 11:37:21;;;;;;;6.20;1.70;;;;;;;26.41;35.64;101258.16;5070507;28;20028;-56
2022/06/22 11:40:26;;;;;;;8.27;2.10;;;;;;;26.36;36.46;101266.31;5073921;28;20024;-54
2022/06/22 11:43:29;;;;;;;6.28;1.73;;;;;;;26.52;36.38;101262.56;5076173;28;20086;-56
2022/06/22 11:46:18;;;;;;;6.75;1.83;;;;;;;26.57;35.63;101269.94;5069020;28;20114;-56
2022/06/22 11:49:01;;;;;;;4.78;1.88;;;;;;;26.61;35.55;101271.88;5077442;28;20032;-56
2022/06/22 11:51:53;;;;;;;3.72;1.40;;;;;;;26.78;34.85;101271.66;5072841;28;20028;-56
2022/06/22 11:54:44;;;;;;;3.70;1.70;;;;;;;26.83;34.64;101271.66;5077200;28;20601;-56
2022/06/22 11:57:24;;;;;;;4.07;1.67;;;;;;;26.70;34.73;101264.00;5047792;28;20040;-56
2022/06/22 12:00:01;;;;;;;6.18;1.95;;;;;;;26.65;34.97;101267.53;5073521;28;20040;-56
2022/06/22 12:02:35;;;;;;;3.20;1.70;;;;;;;26.60;35.69;101264.78;5075093;28;20028;-53
2022/06/22 12:05:12;;;;;;;5.55;1.45;;;;;;;26.70;35.90;101253.91;5072518;28;20032;-53
2022/06/22 12:08:01;;;;;;;4.40;1.67;;;;;;;26.79;35.43;101260.47;5071056;28;20032;-56
2022/06/22 12:10:47;;;;;;;4.95;1.60;;;;;;;26.92;35.43;101253.72;5076550;28;20051;-55
2022/06/22 12:16:58;;;;;;;4.00;1.50;;;;;;;26.97;34.14;101250.16;5069742;28;20088;-58
2022/06/22 12:19:36;;;;;;;5.40;1.33;;;;;;;26.92;32.96;101252.88;5073026;28;20025;-56
2022/06/22 12:22:17;;;;;;;4.60;1.40;;;;;;;26.94;33.25;101248.00;5076090;28;20028;-56
2022/06/22 12:24:58;;;;;;;3.40;1.02;;;;;;;26.99;32.24;101245.28;5067044;28;20027;-55
2022/06/22 12:27:28;;;;;;;4.22;1.30;;;;;;;27.03;31.39;101240.94;5070539;28;20024;-56